createdAt,value
2022-10-12T00:00:50.767Z,3.50
2022-10-12T00:03:18.629Z,3.35
2022-10-12T00:05:47.440Z,3.45
2022-10-12T00:08:14.882Z,3.60
2022-10-12T00:10:42.696Z,3.50
2022-10-12T00:13:10.177Z,3.50
2022-10-12T00:15:38.030Z,3.50
2022-10-12T00:18:05.512Z,3.55
2022-10-12T00:20:33.136Z,3.50
2022-10-12T00:23:01.992Z,3.50
2022-10-12T00:25:29.467Z,3.45
2022-10-12T00:27:56.917Z,3.20
2022-10-12T00:30:24.772Z,3.53
2022-10-12T00:32:52.194Z,3.20
2022-10-12T00:35:19.605Z,3.50
2022-10-12T00:37:47.059Z,3.30
2022-10-12T00:40:15.866Z,3.53
2022-10-12T00:42:43.301Z,3.38
2022-10-12T00:45:11.109Z,3.65
2022-10-12T00:47:39.498Z,3.30
2022-10-12T00:50:09.687Z,3.25
2022-10-12T00:52:40.153Z,3.38
2022-10-12T00:55:08.837Z,3.60
2022-10-12T00:57:39.299Z,3.30
2022-10-12T01:00:10.798Z,3.55
2022-10-12T01:02:39.328Z,3.47
2022-10-12T01:05:07.107Z,3.40
2022-10-12T01:07:34.705Z,3.63
2022-10-12T01:10:02.276Z,3.58
2022-10-12T01:12:29.882Z,3.50
2022-10-12T01:14:58.668Z,3.10
2022-10-12T01:17:33.986Z,3.80
2022-10-12T01:20:11.245Z,3.60
2022-10-12T01:22:43.133Z,3.30
2022-10-12T01:25:14.895Z,3.30
2022-10-12T01:27:45.826Z,3.30
2022-10-12T01:30:19.295Z,3.60
2022-10-12T01:32:57.414Z,3.50
2022-10-12T01:35:26.482Z,3.33
2022-10-12T01:37:58.079Z,3.60
2022-10-12T01:40:30.045Z,3.60
2022-10-12T01:42:58.460Z,3.30
2022-10-12T01:45:27.228Z,3.70
2022-10-12T01:47:55.705Z,3.50
2022-10-12T01:50:25.541Z,3.47
2022-10-12T01:52:57.932Z,3.60
2022-10-12T01:55:30.088Z,3.53
2022-10-12T01:58:14.612Z,3.55
2022-10-12T02:00:45.374Z,3.80
2022-10-12T02:03:17.198Z,3.20
2022-10-12T02:05:46.914Z,3.40
2022-10-12T02:08:16.838Z,3.40
2022-10-12T02:10:47.367Z,3.15
2022-10-12T02:13:15.754Z,3.40
2022-10-12T02:15:44.802Z,3.50
2022-10-12T02:18:14.617Z,3.42
2022-10-12T02:20:43.354Z,3.30
2022-10-12T02:23:11.104Z,3.38
2022-10-12T02:25:40.144Z,3.25
2022-10-12T02:28:09.238Z,3.45
2022-10-12T02:30:39.014Z,3.30
2022-10-12T02:33:09.382Z,3.35
2022-10-12T02:35:39.667Z,3.42
2022-10-12T02:38:10.604Z,3.47
2022-10-12T02:40:39.554Z,3.40
2022-10-12T02:43:11.088Z,3.50
2022-10-12T02:45:39.785Z,3.20
2022-10-12T02:48:09.482Z,3.60
2022-10-12T02:50:37.145Z,3.33
2022-10-12T02:53:05.422Z,3.30
2022-10-12T02:55:32.966Z,3.50
2022-10-12T02:58:00.436Z,3.53
2022-10-12T03:00:27.979Z,3.53
2022-10-12T03:02:55.414Z,3.30
2022-10-12T03:05:24.186Z,3.50
2022-10-12T03:07:51.640Z,3.50
2022-10-12T03:10:19.069Z,3.65
2022-10-12T03:12:50.009Z,3.30
2022-10-12T03:15:18.091Z,3.50
2022-10-12T03:17:45.537Z,3.50
2022-10-12T03:20:13.154Z,3.50
2022-10-12T03:22:42.314Z,3.60
2022-10-12T03:25:09.893Z,3.30
2022-10-12T03:27:37.806Z,3.17
2022-10-12T03:30:06.625Z,3.60
2022-10-12T03:32:34.048Z,3.58
2022-10-12T03:35:01.826Z,3.60
2022-10-12T03:37:29.306Z,3.60
2022-10-12T03:39:58.074Z,3.50
2022-10-12T03:42:25.494Z,3.30
2022-10-12T03:44:52.957Z,3.38
2022-10-12T03:47:20.377Z,3.60
2022-10-12T03:49:50.034Z,3.60
2022-10-12T03:52:17.478Z,3.40
2022-10-12T03:54:44.931Z,3.30
2022-10-12T03:57:13.723Z,3.53
2022-10-12T03:59:41.356Z,3.53
2022-10-12T04:02:11.059Z,3.60
2022-10-12T04:04:41.913Z,3.55
2022-10-12T04:07:09.547Z,3.50
2022-10-12T04:09:37.009Z,3.53
2022-10-12T04:12:04.458Z,3.50
2022-10-12T04:14:33.318Z,3.15
2022-10-12T04:17:00.733Z,3.60
2022-10-12T04:19:28.165Z,3.40
2022-10-12T04:21:55.638Z,3.40
2022-10-12T04:24:23.083Z,3.47
2022-10-12T04:26:50.504Z,3.50
2022-10-12T04:29:17.970Z,3.28
2022-10-12T04:31:46.758Z,3.60
2022-10-12T04:34:14.241Z,3.50
2022-10-12T04:36:42.015Z,3.40
2022-10-12T04:39:09.454Z,3.50
2022-10-12T04:41:36.950Z,3.33
2022-10-12T04:44:04.379Z,3.55
2022-10-12T04:46:31.796Z,3.30
2022-10-12T04:49:00.662Z,3.60
2022-10-12T04:51:28.083Z,3.65
2022-10-12T04:53:55.532Z,3.13
2022-10-12T04:56:22.994Z,3.22
2022-10-12T04:58:50.540Z,3.50
2022-10-12T05:01:18.025Z,3.42
2022-10-12T05:03:45.460Z,3.35
2022-10-12T05:06:14.318Z,3.50
2022-10-12T05:08:41.754Z,3.30
2022-10-12T05:11:09.197Z,3.50
2022-10-12T05:13:36.727Z,3.33
2022-10-12T05:16:04.176Z,3.50
2022-10-12T05:18:31.644Z,3.30
2022-10-12T05:20:59.154Z,3.20
2022-10-12T05:23:28.022Z,3.47
2022-10-12T05:25:55.820Z,3.40
2022-10-12T05:28:23.578Z,3.40
2022-10-12T05:30:51.438Z,3.70
2022-10-12T05:33:18.990Z,3.30
2022-10-12T05:35:48.764Z,3.50
2022-10-12T05:38:19.011Z,3.40
2022-10-12T05:40:47.850Z,3.60
2022-10-12T05:43:15.276Z,3.13
2022-10-12T05:45:43.449Z,3.60
2022-10-12T05:48:10.984Z,3.40
2022-10-12T05:50:38.418Z,3.50
2022-10-12T05:53:05.860Z,3.60
2022-10-12T05:55:33.389Z,3.40
2022-10-12T05:58:02.181Z,3.60
2022-10-12T06:00:29.604Z,3.53
2022-10-12T06:02:57.264Z,3.40
2022-10-12T06:05:25.067Z,3.45
2022-10-12T06:07:52.508Z,3.30
2022-10-12T06:10:20.034Z,3.50
2022-10-12T06:12:47.458Z,3.60
2022-10-12T06:15:16.280Z,3.53
2022-10-12T06:17:43.777Z,3.70
2022-10-12T06:20:11.801Z,3.35
2022-10-12T06:22:39.766Z,3.50
2022-10-12T06:25:08.961Z,3.38
2022-10-12T06:27:36.495Z,3.50
2022-10-12T06:30:04.279Z,3.42
2022-10-12T06:32:33.304Z,3.65
2022-10-12T06:35:00.744Z,3.65
2022-10-12T06:37:49.244Z,3.67
2022-10-12T06:40:17.971Z,3.72
2022-10-12T06:42:45.458Z,3.72
2022-10-12T06:45:13.120Z,3.50
2022-10-12T06:47:41.978Z,3.45
2022-10-12T06:50:10.211Z,3.53
2022-10-12T06:52:38.339Z,3.40
2022-10-12T06:55:07.857Z,3.70
2022-10-12T06:57:37.122Z,3.40
2022-10-12T07:00:05.140Z,3.45
2022-10-12T07:02:32.627Z,3.45
2022-10-12T07:05:01.455Z,3.63
2022-10-12T07:07:30.367Z,3.35
2022-10-12T07:09:57.839Z,3.40
2022-10-12T07:12:25.272Z,3.28
2022-10-12T07:14:54.667Z,3.40
2022-10-12T07:17:22.333Z,3.50
2022-10-12T07:19:49.797Z,3.95
2022-10-12T07:22:18.569Z,4.40
2022-10-12T07:24:46.083Z,4.10
2022-10-12T07:27:13.618Z,3.78
2022-10-12T07:29:41.179Z,4.18
2022-10-12T07:32:08.877Z,3.92
2022-10-12T07:34:36.514Z,4.10
2022-10-12T07:37:04.105Z,3.78
2022-10-12T07:39:32.864Z,4.00
2022-10-12T07:42:00.319Z,3.72
2022-10-12T07:44:28.278Z,3.70
2022-10-12T07:46:55.751Z,3.70
2022-10-12T07:49:23.190Z,3.80
2022-10-12T07:51:50.625Z,3.50
2022-10-12T07:54:21.736Z,3.50
2022-10-12T07:56:51.455Z,3.95
2022-10-12T07:59:18.886Z,3.85
2022-10-12T08:01:46.351Z,3.70
2022-10-12T08:04:13.810Z,3.60
2022-10-12T08:06:42.629Z,3.60
2022-10-12T08:09:10.093Z,3.90
2022-10-12T08:11:39.473Z,3.80
2022-10-12T08:14:08.578Z,3.70
2022-10-12T08:16:36.040Z,3.50
2022-10-12T08:19:03.470Z,3.83
2022-10-12T08:21:30.910Z,3.90
2022-10-12T08:23:58.321Z,4.10
2022-10-12T08:26:25.967Z,3.83
2022-10-12T08:28:53.406Z,3.90
2022-10-12T08:31:22.381Z,4.20
2022-10-12T08:33:49.832Z,3.80
2022-10-12T08:36:17.301Z,4.30
2022-10-12T08:38:48.713Z,3.85
2022-10-12T08:41:26.219Z,4.50
2022-10-12T08:44:01.595Z,4.00
2022-10-12T08:46:30.712Z,4.00
2022-10-12T08:48:59.757Z,3.95
2022-10-12T08:51:28.163Z,3.70
2022-10-12T08:53:56.677Z,3.92
2022-10-12T08:56:24.223Z,4.50
2022-10-12T08:58:52.446Z,4.30
2022-10-12T09:01:23.909Z,4.07
2022-10-12T09:03:59.046Z,4.10
2022-10-12T09:06:29.258Z,4.40
2022-10-12T09:09:00.859Z,4.40
2022-10-12T09:11:33.136Z,4.10
2022-10-12T09:14:03.940Z,4.10
2022-10-12T09:16:33.470Z,4.70
2022-10-12T09:19:04.393Z,4.10
2022-10-12T09:21:32.439Z,4.25
2022-10-12T09:24:00.113Z,4.13
2022-10-12T09:26:34.143Z,4.38
2022-10-12T09:29:02.212Z,4.20
2022-10-12T09:31:36.024Z,4.40
2022-10-12T09:34:05.977Z,4.50
2022-10-12T09:36:34.767Z,4.60
2022-10-12T09:39:04.129Z,4.00
2022-10-12T09:41:33.876Z,3.90
2022-10-12T09:44:02.362Z,3.70
2022-10-12T09:46:35.011Z,3.58
2022-10-12T09:49:02.458Z,3.95
2022-10-12T09:51:32.299Z,3.90
2022-10-12T09:54:03.424Z,3.78
2022-10-12T09:56:36.277Z,3.88
2022-10-12T09:59:05.427Z,3.88
2022-10-12T10:01:33.574Z,4.00
2022-10-12T10:04:08.795Z,3.92
2022-10-12T10:06:38.322Z,3.90
2022-10-12T10:09:07.007Z,3.67
2022-10-12T10:11:35.195Z,4.03
2022-10-12T10:14:02.812Z,3.72
2022-10-12T10:16:31.580Z,3.60
2022-10-12T10:19:00.301Z,4.00
2022-10-12T10:21:29.547Z,3.90
2022-10-12T10:23:58.872Z,3.80
2022-10-12T10:26:27.505Z,3.65
2022-10-12T10:28:57.533Z,3.50
2022-10-12T10:31:27.709Z,3.78
2022-10-12T10:34:19.463Z,3.88
2022-10-12T10:36:48.105Z,3.70
2022-10-12T10:39:19.395Z,3.83
2022-10-12T10:41:47.165Z,3.95
2022-10-12T10:44:26.818Z,3.70
2022-10-12T10:46:55.330Z,3.60
2022-10-12T10:49:26.144Z,3.58
2022-10-12T10:51:54.629Z,3.55
2022-10-12T10:54:27.905Z,3.70
2022-10-12T10:56:58.443Z,3.90
2022-10-12T10:59:31.163Z,3.80
2022-10-12T11:02:00.950Z,3.78
2022-10-12T11:04:31.619Z,3.70
2022-10-12T11:07:02.532Z,3.72
2022-10-12T11:09:35.163Z,3.80
2022-10-12T11:12:04.138Z,3.22
2022-10-12T11:14:34.543Z,3.80
2022-10-12T11:17:04.460Z,3.80
2022-10-12T11:19:36.624Z,3.55
2022-10-12T11:22:05.740Z,3.45
2022-10-12T11:24:36.280Z,3.70
2022-10-12T11:27:05.043Z,4.45
2022-10-12T11:29:34.569Z,4.00
2022-10-12T11:32:04.580Z,3.92
2022-10-12T11:34:33.679Z,3.83
2022-10-12T11:37:20.017Z,3.78
2022-10-12T11:39:51.330Z,3.90
2022-10-12T11:42:24.877Z,3.97
2022-10-12T11:44:52.689Z,4.00
2022-10-12T11:47:23.631Z,4.00
2022-10-12T11:49:53.519Z,3.93
2022-10-12T11:52:27.878Z,3.65
2022-10-12T11:55:00.654Z,4.05
2022-10-12T11:57:29.217Z,3.90
2022-10-12T12:00:00.186Z,3.97
2022-10-12T12:02:29.048Z,3.83
2022-10-12T12:04:56.988Z,3.88
2022-10-12T12:07:47.444Z,3.90
2022-10-12T12:10:35.214Z,3.60
2022-10-12T12:13:18.440Z,3.55
2022-10-12T12:16:00.749Z,3.30
2022-10-12T12:18:29.868Z,3.53
2022-10-12T12:21:02.360Z,3.83
2022-10-12T12:23:30.489Z,3.88
2022-10-12T12:26:06.011Z,3.80
2022-10-12T12:28:35.417Z,4.10
2022-10-12T12:31:03.697Z,3.80
2022-10-12T12:33:32.125Z,4.00
2022-10-12T12:36:00.776Z,3.70
2022-10-12T12:38:30.070Z,4.00
2022-10-12T12:40:59.261Z,3.90
2022-10-12T12:43:52.382Z,3.80
2022-10-12T12:46:20.931Z,4.00
2022-10-12T12:48:58.521Z,3.80
2022-10-12T12:51:28.003Z,3.90
2022-10-12T12:53:57.644Z,3.95
2022-10-12T12:56:29.033Z,4.20
2022-10-12T12:59:03.369Z,4.35
2022-10-12T13:01:44.961Z,3.95
2022-10-12T13:04:22.727Z,4.00
2022-10-12T13:07:07.656Z,4.00
2022-10-12T13:09:49.992Z,3.75
2022-10-12T13:12:38.596Z,3.80
2022-10-12T13:15:22.193Z,3.90
2022-10-12T13:17:55.394Z,3.90
2022-10-12T13:20:24.552Z,4.10
2022-10-12T13:22:54.281Z,3.90
2022-10-12T13:25:32.188Z,4.00
2022-10-12T13:28:02.927Z,4.00
2022-10-12T13:30:35.399Z,3.75
2022-10-12T13:33:04.614Z,3.63
2022-10-12T13:35:34.275Z,3.70
2022-10-12T13:38:02.702Z,3.70
2022-10-12T13:40:31.407Z,3.85
2022-10-12T13:43:17.826Z,3.80
2022-10-12T13:45:47.193Z,4.00
2022-10-12T13:48:34.054Z,4.20
2022-10-12T13:51:20.604Z,3.90
2022-10-12T13:53:48.125Z,4.00
2022-10-12T13:56:16.690Z,3.90
2022-10-12T13:58:44.248Z,3.90
2022-10-12T14:01:12.249Z,3.88
2022-10-12T14:03:43.287Z,4.00
2022-10-12T14:06:25.295Z,3.85
2022-10-12T14:08:53.372Z,3.90
2022-10-12T14:11:20.952Z,3.80
2022-10-12T14:13:48.494Z,3.88
2022-10-12T14:16:15.918Z,3.72
2022-10-12T14:18:45.582Z,3.50
2022-10-12T14:21:16.268Z,3.65
2022-10-12T14:23:46.603Z,3.92
2022-10-12T14:26:22.600Z,3.88
2022-10-12T14:28:50.136Z,4.10
2022-10-12T14:31:18.009Z,4.03
2022-10-12T14:33:46.933Z,4.05
2022-10-12T14:36:16.191Z,4.10
2022-10-12T14:38:44.638Z,4.03
2022-10-12T14:41:31.335Z,3.90
2022-10-12T14:44:11.310Z,4.20
2022-10-12T14:46:39.475Z,4.10
2022-10-12T14:49:11.591Z,3.70
2022-10-12T14:51:39.169Z,3.90
2022-10-12T14:54:06.708Z,3.90
2022-10-12T14:56:34.160Z,3.90
2022-10-12T14:59:01.611Z,3.97
2022-10-12T15:01:29.415Z,3.33
2022-10-12T15:03:56.906Z,3.70
2022-10-12T15:06:25.753Z,3.80
2022-10-12T15:08:53.731Z,3.55
2022-10-12T15:11:24.006Z,3.50
2022-10-12T15:13:51.562Z,3.50
2022-10-12T15:16:20.669Z,3.40
2022-10-12T15:18:48.450Z,3.60
2022-10-12T15:21:15.958Z,3.42
2022-10-12T15:23:45.160Z,3.20
2022-10-12T15:26:15.327Z,3.28
2022-10-12T15:28:43.178Z,3.40
2022-10-12T15:31:17.859Z,3.50
2022-10-12T15:33:45.704Z,3.15
2022-10-12T15:36:13.177Z,3.40
2022-10-12T15:38:40.664Z,3.50
2022-10-12T15:41:15.851Z,3.40
2022-10-12T15:43:43.306Z,3.15
2022-10-12T15:46:11.919Z,3.15
2022-10-12T15:48:40.311Z,3.20
2022-10-12T15:51:09.629Z,3.28
2022-10-12T15:53:37.260Z,3.13
2022-10-12T15:56:08.059Z,3.30
2022-10-12T15:58:37.172Z,3.20
2022-10-12T16:01:04.903Z,3.22
2022-10-12T16:03:32.785Z,3.28
2022-10-12T16:06:03.435Z,3.30
2022-10-12T16:08:31.599Z,3.20
2022-10-12T16:10:59.647Z,3.30
2022-10-12T16:13:28.192Z,3.30
2022-10-12T16:15:56.969Z,3.22
2022-10-12T16:18:24.525Z,3.20
2022-10-12T16:20:54.465Z,3.20
2022-10-12T16:23:23.779Z,3.20
2022-10-12T16:25:51.522Z,3.10
2022-10-12T16:28:19.254Z,3.03
2022-10-12T16:30:46.747Z,3.33
2022-10-12T16:33:15.777Z,3.55
2022-10-12T16:35:43.352Z,3.97
2022-10-12T16:38:11.393Z,4.60
2022-10-12T16:40:39.657Z,4.50
2022-10-12T16:43:07.462Z,4.47
2022-10-12T16:45:34.977Z,4.50
2022-10-12T16:48:02.589Z,4.10
2022-10-12T16:50:32.376Z,4.53
2022-10-12T16:53:00.089Z,4.47
2022-10-12T16:55:27.548Z,4.20
2022-10-12T16:57:55.232Z,4.30
2022-10-12T17:00:22.679Z,4.18
2022-10-12T17:02:52.076Z,3.95
2022-10-12T17:05:23.776Z,4.18
2022-10-12T17:07:52.580Z,3.88
2022-10-12T17:10:20.081Z,3.85
2022-10-12T17:12:47.636Z,3.80
2022-10-12T17:15:18.955Z,3.78
2022-10-12T17:17:46.457Z,3.63
2022-10-12T17:20:14.909Z,3.90
2022-10-12T17:22:42.349Z,3.80
2022-10-12T17:25:11.378Z,3.55
2022-10-12T17:27:39.098Z,3.65
2022-10-12T17:30:06.983Z,3.40
2022-10-12T17:32:38.010Z,3.50
2022-10-12T17:35:11.199Z,3.80
2022-10-12T17:37:38.651Z,3.90
2022-10-12T17:40:06.982Z,3.65
2022-10-12T17:42:36.258Z,3.67
2022-10-12T17:45:03.800Z,3.55
2022-10-12T17:47:31.210Z,3.80
2022-10-12T17:49:58.963Z,3.60
2022-10-12T17:52:26.482Z,3.78
2022-10-12T17:55:09.393Z,3.85
2022-10-12T17:57:44.570Z,3.75
2022-10-12T18:00:12.912Z,3.92
2022-10-12T18:02:40.517Z,3.92
2022-10-12T18:05:11.148Z,3.90
2022-10-12T18:07:40.630Z,3.60
2022-10-12T18:10:08.738Z,3.80
2022-10-12T18:12:38.011Z,3.70
2022-10-12T18:15:07.445Z,3.88
2022-10-12T18:17:35.454Z,3.80
2022-10-12T18:22:58.736Z,3.85
2022-10-12T18:25:28.059Z,3.90
2022-10-12T18:27:55.563Z,3.85
2022-10-12T18:30:24.461Z,3.60
2022-10-12T18:32:51.973Z,3.67
2022-10-12T18:35:19.579Z,3.70
2022-10-12T18:37:47.581Z,3.70
2022-10-12T18:40:15.162Z,3.60
2022-10-12T18:42:42.604Z,3.70
2022-10-12T18:45:11.695Z,3.60
2022-10-12T18:47:40.635Z,3.80
2022-10-12T18:50:08.687Z,3.85
2022-10-12T18:52:36.251Z,3.80
2022-10-12T18:55:03.701Z,3.95
2022-10-12T18:57:34.365Z,3.53
2022-10-12T19:00:05.103Z,3.60
2022-10-12T19:02:33.902Z,3.70
2022-10-12T19:05:02.940Z,3.80
2022-10-12T19:07:30.447Z,3.60
2022-10-12T19:09:58.077Z,3.70
2022-10-12T19:12:25.824Z,3.67
2022-10-12T19:14:53.268Z,3.50
2022-10-12T19:17:22.233Z,3.40
2022-10-12T19:19:50.031Z,3.47
2022-10-12T19:22:19.360Z,3.50
2022-10-12T19:24:48.094Z,3.50
2022-10-12T19:27:15.539Z,3.58
2022-10-12T19:29:45.741Z,3.65
2022-10-12T19:32:13.658Z,3.40
2022-10-12T19:34:41.099Z,3.60
2022-10-12T19:37:08.770Z,3.70
2022-10-12T19:39:37.592Z,3.50
2022-10-12T19:42:05.142Z,3.50
2022-10-12T19:44:32.576Z,3.45
2022-10-12T19:47:01.099Z,3.60
2022-10-12T19:49:31.063Z,3.80
2022-10-12T19:52:01.849Z,3.90
2022-10-12T19:54:30.536Z,3.80
2022-10-12T19:57:01.802Z,3.60
2022-10-12T19:59:29.281Z,3.60
2022-10-12T20:01:56.736Z,3.90
2022-10-12T20:04:24.176Z,3.70
2022-10-12T20:06:51.602Z,3.80
2022-10-12T20:09:19.091Z,3.70
2022-10-12T20:11:46.696Z,3.60
2022-10-12T20:14:15.480Z,3.50
2022-10-12T20:16:42.900Z,3.60
2022-10-12T20:19:10.803Z,3.80
2022-10-12T20:21:38.241Z,3.60
2022-10-12T20:24:06.046Z,3.60
2022-10-12T20:26:33.469Z,3.40
2022-10-12T20:29:01.420Z,3.70
2022-10-12T20:31:30.354Z,3.70
2022-10-12T20:33:58.328Z,3.80
2022-10-12T20:36:26.703Z,3.65
2022-10-12T20:38:54.361Z,3.70
2022-10-12T20:41:23.133Z,3.70
2022-10-12T20:43:50.633Z,3.60
2022-10-12T20:46:18.651Z,3.55
2022-10-12T20:48:47.473Z,3.38
2022-10-12T20:51:18.643Z,3.40
2022-10-12T20:53:46.197Z,3.70
2022-10-12T20:56:13.752Z,3.38
2022-10-12T20:58:41.202Z,3.50
2022-10-12T21:01:09.720Z,3.58
2022-10-12T21:03:37.544Z,3.65
2022-10-12T21:06:07.470Z,3.50
2022-10-12T21:08:35.294Z,3.65
2022-10-12T21:11:02.738Z,3.42
2022-10-12T21:13:30.954Z,3.55
2022-10-12T21:15:58.591Z,3.60
2022-10-12T21:18:26.032Z,3.50
2022-10-12T21:20:54.450Z,3.33
2022-10-12T21:23:23.372Z,3.30
2022-10-12T21:25:50.867Z,3.55
2022-10-12T21:28:18.564Z,3.33
2022-10-12T21:30:47.056Z,3.55
2022-10-12T21:33:15.037Z,3.40
2022-10-12T21:35:42.553Z,3.65
2022-10-12T21:38:10.410Z,3.50
2022-10-12T21:40:39.184Z,3.58
2022-10-12T21:43:06.729Z,3.33
2022-10-12T21:45:34.232Z,3.40
2022-10-12T21:48:01.684Z,3.70
2022-10-12T21:50:29.467Z,3.70
2022-10-12T21:53:00.331Z,3.40
2022-10-12T21:55:27.989Z,3.40
2022-10-12T21:57:56.857Z,3.40
2022-10-12T22:00:25.173Z,3.40
2022-10-12T22:02:52.657Z,3.40
2022-10-12T22:05:20.147Z,3.50
2022-10-12T22:07:47.598Z,3.50
2022-10-12T22:10:15.028Z,3.55
2022-10-12T22:12:42.550Z,3.70
2022-10-12T22:15:11.968Z,3.60
2022-10-12T22:17:39.546Z,3.35
2022-10-12T22:20:08.161Z,3.60
2022-10-12T22:22:35.829Z,3.40
2022-10-12T22:25:03.271Z,3.70
2022-10-12T22:27:30.959Z,3.58
2022-10-12T22:30:00.348Z,3.60
2022-10-12T22:32:29.129Z,3.35
2022-10-12T22:34:57.250Z,3.30
2022-10-12T22:37:24.741Z,3.28
2022-10-12T22:39:52.183Z,3.40
2022-10-12T22:42:19.870Z,3.28
2022-10-12T22:44:47.512Z,3.30
2022-10-12T22:47:14.918Z,3.70
2022-10-12T22:49:43.693Z,3.60
2022-10-12T22:52:11.394Z,3.30
2022-10-12T22:54:38.818Z,3.58
2022-10-12T22:57:06.335Z,3.40
2022-10-12T22:59:33.790Z,3.30
2022-10-12T23:02:01.224Z,3.47
2022-10-12T23:04:28.741Z,3.63
2022-10-12T23:06:57.517Z,3.50
2022-10-12T23:09:24.939Z,3.67
2022-10-12T23:11:52.451Z,3.50
2022-10-12T23:14:19.887Z,3.70
2022-10-12T23:16:47.313Z,3.45
2022-10-12T23:19:14.791Z,3.50
2022-10-12T23:21:42.223Z,3.72
2022-10-12T23:24:11.628Z,3.40
2022-10-12T23:26:39.060Z,3.70
2022-10-12T23:29:06.505Z,3.50
2022-10-12T23:31:35.582Z,3.33
2022-10-12T23:34:03.789Z,3.70
2022-10-12T23:36:31.441Z,3.45
2022-10-12T23:39:00.420Z,3.50
2022-10-12T23:41:29.261Z,3.60
2022-10-12T23:43:56.709Z,3.70
2022-10-12T23:46:24.179Z,3.40
2022-10-12T23:48:51.638Z,3.60
2022-10-12T23:51:19.068Z,3.70
2022-10-12T23:53:46.528Z,3.50
2022-10-12T23:56:14.150Z,3.72
2022-10-12T23:58:43.028Z,3.50
